Time;durP1;ratioP1;P1;durP2;ratioP2;P2;SDS_P1;SDS_P2;PMS_P1;PMS_P2;Temp;Humidity;BMP_temperature;BMP_pressure;BME280_temperature;BME280_humidity;BME280_pressure;Samples;Min_cycle;Max_cycle;Signal;HPM_P1;HPM_P2
2023/02/04 00:02:38;;;;;;;13.20;4.57;;;;;;;8.45;68.14;101476.06;10258683;28;20054;-47
2023/02/04 00:07:39;;;;;;;11.43;3.22;;;;;;;8.37;68.25;101472.91;10252901;28;20305;-46
2023/02/04 00:12:41;;;;;;;9.60;3.22;;;;;;;8.35;68.45;101489.81;10250203;28;20082;-46
2023/02/04 00:17:43;;;;;;;9.30;3.40;;;;;;;8.32;67.36;101486.41;10249679;28;20051;-46
2023/02/04 00:22:44;;;;;;;7.20;3.15;;;;;;;8.06;68.70;101474.47;10257260;28;20695;-46
2023/02/04 00:27:46;;;;;;;8.93;3.22;;;;;;;8.11;69.22;101493.66;10257531;28;20076;-47
2023/02/04 00:32:47;;;;;;;8.98;3.10;;;;;;;7.93;67.14;101495.44;10254872;28;20070;-46
2023/02/04 00:37:49;;;;;;;7.88;3.40;;;;;;;7.84;67.63;101489.75;10256142;28;20039;-47
2023/02/04 00:42:51;;;;;;;7.30;3.22;;;;;;;7.82;67.41;101488.94;10255494;28;20518;-47
2023/02/04 00:47:52;;;;;;;11.07;2.80;;;;;;;7.87;67.61;101484.28;10251984;28;20062;-46
2023/02/04 00:52:54;;;;;;;9.82;3.28;;;;;;;7.89;66.81;101490.38;10253606;28;20141;-47
2023/02/04 00:57:55;;;;;;;10.27;3.15;;;;;;;7.90;68.06;101478.84;10257308;28;20159;-46
2023/02/04 01:02:57;;;;;;;8.95;2.47;;;;;;;7.90;66.26;101500.03;10254821;28;20074;-47
2023/02/04 01:07:59;;;;;;;9.82;2.58;;;;;;;7.99;66.61;101501.34;10253170;28;20540;-46
2023/02/04 01:13:00;;;;;;;9.25;3.33;;;;;;;7.88;66.18;101508.06;10252300;28;20129;-46
2023/02/04 01:18:02;;;;;;;10.27;2.45;;;;;;;7.92;66.99;101514.06;10251322;28;20514;-46
2023/02/04 01:23:03;;;;;;;6.50;2.55;;;;;;;8.07;67.06;101528.38;10250552;28;20430;-46
2023/02/04 01:28:05;;;;;;;11.32;3.15;;;;;;;8.16;65.98;101540.31;10250009;28;20042;-46
2023/02/04 01:33:06;;;;;;;7.20;2.35;;;;;;;8.27;65.67;101553.88;10253826;28;20082;-46
2023/02/04 01:38:08;;;;;;;10.50;2.45;;;;;;;8.35;65.51;101550.84;10248934;28;20069;-47
2023/02/04 01:43:10;;;;;;;13.27;3.15;;;;;;;8.23;64.45;101555.00;10274463;28;20082;-46
2023/02/04 01:48:18;;;;;;;7.38;2.20;;;;;;;8.39;65.65;101566.56;10257447;28;20224;-46
2023/02/04 01:53:23;;;;;;;8.82;3.00;;;;;;;8.29;64.46;101570.59;10260310;28;20050;-46
2023/02/04 01:58:25;;;;;;;10.65;2.83;;;;;;;8.41;64.35;101575.28;10254140;28;20677;-46
2023/02/04 02:03:26;;;;;;;6.95;2.63;;;;;;;8.55;64.24;101584.38;10258989;28;20057;-47
2023/02/04 02:08:28;;;;;;;9.93;2.95;;;;;;;8.46;64.58;101597.16;10254491;28;20059;-47
2023/02/04 02:13:29;;;;;;;7.80;2.70;;;;;;;8.38;64.05;101594.03;10253915;28;20054;-47
2023/02/04 02:18:31;;;;;;;8.93;2.53;;;;;;;8.46;63.40;101589.22;10253132;28;20054;-49
2023/02/04 02:23:53;;;;;;;8.52;3.53;;;;;;;8.39;62.93;101600.19;10243815;28;20402;-46
2023/02/04 02:28:54;;;;;;;7.97;2.35;;;;;;;8.23;62.78;101592.97;10250568;28;20931;-45
2023/02/04 02:33:56;;;;;;;10.23;3.30;;;;;;;8.26;64.06;101598.13;10251817;28;20676;-47
2023/02/04 02:38:58;;;;;;;7.82;3.10;;;;;;;8.39;63.08;101614.31;10256168;28;20058;-47
2023/02/04 02:44:01;;;;;;;10.60;2.45;;;;;;;8.44;63.42;101622.09;10248835;28;20637;-46
2023/02/04 02:49:03;;;;;;;7.68;3.40;;;;;;;8.35;63.92;101626.00;10251244;28;20057;-47
2023/02/04 02:54:04;;;;;;;5.18;2.15;;;;;;;8.25;64.01;101606.19;10254694;28;20157;-48
2023/02/04 02:59:13;;;;;;;7.55;2.38;;;;;;;8.10;64.20;101621.03;10252286;28;20055;-47
2023/02/04 03:04:17;;;;;;;7.88;2.67;;;;;;;7.83;64.58;101631.19;10253151;28;21170;-46
2023/02/04 03:09:19;;;;;;;11.47;3.93;;;;;;;8.06;64.92;101633.59;10254899;28;20047;-46
2023/02/04 03:14:23;;;;;;;10.02;3.13;;;;;;;7.88;63.09;101630.03;10238400;28;20058;-47
2023/02/04 03:19:25;;;;;;;6.93;2.47;;;;;;;7.87;63.74;101638.06;10255396;28;20529;-46
2023/02/04 03:24:26;;;;;;;7.40;2.90;;;;;;;7.72;64.52;101650.25;10254800;28;20055;-46
2023/02/04 03:29:27;;;;;;;12.02;4.05;;;;;;;7.79;65.11;101662.25;10252172;28;20141;-47
2023/02/04 03:34:30;;;;;;;8.32;3.10;;;;;;;8.07;64.69;101658.31;10264347;28;20498;-46
2023/02/04 03:39:31;;;;;;;11.43;3.58;;;;;;;8.11;63.91;101659.91;10253551;28;20805;-46
2023/02/04 03:44:32;;;;;;;11.02;3.03;;;;;;;8.01;64.61;101672.72;10248706;28;20043;-46
2023/02/04 03:49:35;;;;;;;9.48;2.88;;;;;;;8.05;64.54;101679.59;10250469;28;20057;-47
2023/02/04 03:54:36;;;;;;;5.45;3.15;;;;;;;7.97;65.25;101673.78;10253989;28;20038;-46
2023/02/04 03:59:37;;;;;;;11.27;3.03;;;;;;;8.10;64.14;101677.59;10258748;28;20077;-46
2023/02/04 04:04:39;;;;;;;9.98;2.83;;;;;;;8.12;64.18;101674.84;10251609;28;20176;-45
2023/02/04 04:09:40;;;;;;;14.00;4.07;;;;;;;8.18;64.41;101684.31;10249790;28;20122;-46
2023/02/04 04:14:42;;;;;;;10.95;3.72;;;;;;;8.22;64.01;101699.16;10247281;28;20067;-46
2023/02/04 04:19:43;;;;;;;9.73;3.13;;;;;;;8.07;63.99;101696.28;10241845;28;20058;-46
2023/02/04 04:24:45;;;;;;;8.77;3.05;;;;;;;8.08;64.21;101705.97;10242175;28;20054;-46
2023/02/04 04:29:47;;;;;;;10.23;3.10;;;;;;;8.05;64.15;101695.53;10254285;28;20082;-46
2023/02/04 04:34:48;;;;;;;12.48;3.72;;;;;;;8.06;64.04;101696.38;10247024;28;20047;-45
2023/02/04 04:39:49;;;;;;;14.23;3.30;;;;;;;7.86;64.97;101699.97;10258920;28;20050;-45
2023/02/04 04:44:51;;;;;;;11.95;3.45;;;;;;;7.99;65.61;101694.94;10245027;28;20198;-46
2023/02/04 04:49:52;;;;;;;12.18;3.20;;;;;;;7.94;64.68;101695.16;10246900;28;20097;-46
2023/02/04 04:54:53;;;;;;;9.75;3.10;;;;;;;7.82;64.79;101687.78;10246369;28;20928;-46
2023/02/04 04:59:55;;;;;;;10.43;3.75;;;;;;;7.90;65.43;101709.50;10248224;28;20053;-46
2023/02/04 05:04:56;;;;;;;16.27;3.70;;;;;;;7.95;64.40;101718.09;10248834;28;20049;-46
2023/02/04 05:09:58;;;;;;;12.07;3.63;;;;;;;7.73;65.03;101726.16;10249442;28;20507;-45
2023/02/04 05:14:59;;;;;;;13.43;4.82;;;;;;;7.75;65.94;101734.91;10254800;28;20754;-46
2023/02/04 05:20:00;;;;;;;15.00;3.63;;;;;;;7.74;66.32;101733.19;10261102;28;20141;-46
2023/02/04 05:25:02;;;;;;;14.43;4.05;;;;;;;7.66;66.59;101730.88;10264412;28;20066;-46
2023/02/04 05:30:04;;;;;;;11.50;3.53;;;;;;;7.78;66.28;101740.94;10260044;28;20138;-45
2023/02/04 05:35:06;;;;;;;14.60;3.47;;;;;;;7.87;65.61;101744.09;10255991;28;20154;-46
2023/02/04 05:40:08;;;;;;;12.00;4.32;;;;;;;7.91;65.49;101756.28;10255443;28;20057;-47
2023/02/04 05:45:14;;;;;;;12.57;3.90;;;;;;;7.97;65.56;101756.00;10270134;28;20058;-46
2023/02/04 05:50:15;;;;;;;11.50;3.58;;;;;;;8.13;65.78;101766.78;10259464;28;20168;-46
2023/02/04 05:55:17;;;;;;;13.15;4.15;;;;;;;8.06;64.79;101760.91;10257511;28;20256;-47
2023/02/04 06:00:19;;;;;;;12.50;3.67;;;;;;;8.05;64.74;101763.63;10255130;28;20047;-46
2023/02/04 06:05:21;;;;;;;14.23;3.97;;;;;;;8.13;65.39;101772.06;10260521;28;20053;-46
2023/02/04 06:10:23;;;;;;;12.68;3.85;;;;;;;8.12;65.21;101776.53;10254780;28;20047;-47
2023/02/04 06:15:24;;;;;;;12.52;3.70;;;;;;;8.01;65.55;101788.56;10249998;28;20082;-46
2023/02/04 06:20:26;;;;;;;15.05;3.85;;;;;;;8.00;65.71;101798.31;10255202;28;20226;-46
2023/02/04 06:25:27;;;;;;;14.27;4.70;;;;;;;8.04;65.71;101788.41;10255458;28;20050;-46
2023/02/04 06:30:29;;;;;;;13.68;4.22;;;;;;;8.00;65.54;101808.91;10257444;28;20440;-46
2023/02/04 06:35:31;;;;;;;15.55;4.10;;;;;;;7.84;66.27;101768.13;10258222;28;20467;-46
2023/02/04 06:40:32;;;;;;;16.70;4.13;;;;;;;8.05;66.24;101812.22;10268111;28;20054;-46
2023/02/04 06:45:34;;;;;;;14.15;4.07;;;;;;;8.03;66.26;101818.50;10256363;28;20098;-46
2023/02/04 06:50:36;;;;;;;15.95;4.57;;;;;;;8.02;66.77;101812.34;10252326;28;20493;-46
2023/02/04 06:55:38;;;;;;;15.50;4.15;;;;;;;8.02;66.54;101822.97;10257131;28;20384;-46
2023/02/04 07:00:40;;;;;;;18.05;4.10;;;;;;;8.00;67.14;101821.28;10233747;28;20054;-47
2023/02/04 07:05:41;;;;;;;14.13;3.72;;;;;;;8.00;67.45;101819.53;10217172;28;20058;-46
2023/02/04 07:10:43;;;;;;;10.85;3.92;;;;;;;8.02;67.47;101836.22;10230020;28;20047;-46
2023/02/04 07:15:45;;;;;;;12.68;3.63;;;;;;;8.05;67.13;101852.00;10238490;28;20587;-46
2023/02/04 07:20:47;;;;;;;16.77;5.03;;;;;;;7.79;68.12;101864.59;10255940;28;21019;-46
2023/02/04 07:25:52;;;;;;;12.90;3.58;;;;;;;7.88;68.09;101879.25;10236030;28;21800;-46
2023/02/04 07:30:54;;;;;;;10.55;4.28;;;;;;;7.57;69.90;101885.84;10228485;28;20054;-45
2023/02/04 07:35:56;;;;;;;14.45;3.78;;;;;;;7.78;69.17;101885.88;10234572;28;20112;-47
2023/02/04 07:40:57;;;;;;;13.40;4.57;;;;;;;7.75;69.11;101889.50;10233292;28;20891;-48
2023/02/04 07:45:58;;;;;;;11.52;4.40;;;;;;;7.72;69.88;101892.31;10247414;28;20125;-47
2023/02/04 07:51:00;;;;;;;15.77;4.45;;;;;;;7.77;69.70;101905.34;10233622;28;20078;-49
2023/02/04 07:56:02;;;;;;;13.98;6.45;;;;;;;7.68;70.17;101906.59;10224741;28;20663;-46
2023/02/04 08:01:03;;;;;;;17.73;4.93;;;;;;;7.72;70.49;101921.47;10232430;28;20058;-46
2023/02/04 08:06:05;;;;;;;14.23;5.88;;;;;;;7.76;70.68;101923.06;10224263;28;20057;-47
2023/02/04 08:11:06;;;;;;;18.00;4.90;;;;;;;7.87;70.07;101932.34;10223773;28;20054;-47
2023/02/04 08:16:08;;;;;;;18.75;3.97;;;;;;;8.03;69.72;101933.44;10214447;28;20614;-46
2023/02/04 08:21:12;;;;;;;17.23;5.33;;;;;;;8.23;69.94;101942.31;10216398;28;20155;-46
2023/02/04 08:26:13;;;;;;;14.45;4.78;;;;;;;8.46;68.20;101949.28;10224944;28;20844;-46
2023/02/04 08:31:14;;;;;;;14.85;5.40;;;;;;;8.52;68.08;101964.91;10228662;28;20054;-46
2023/02/04 08:36:16;;;;;;;15.20;5.75;;;;;;;8.68;67.38;101959.78;10228359;28;20696;-47
2023/02/04 08:41:17;;;;;;;14.82;4.20;;;;;;;8.84;67.38;101966.13;10232116;28;20050;-46
2023/02/04 08:46:18;;;;;;;17.05;4.72;;;;;;;9.02;66.13;101984.78;10233424;28;20081;-46
2023/02/04 08:51:20;;;;;;;13.27;4.28;;;;;;;9.14;65.54;101984.25;10239867;28;20054;-46
2023/02/04 08:56:21;;;;;;;13.40;3.97;;;;;;;9.18;64.95;101985.78;10240701;28;20058;-47
2023/02/04 09:01:23;;;;;;;15.13;4.57;;;;;;;9.34;64.57;101982.44;10238107;28;20062;-46
2023/02/04 09:06:24;;;;;;;17.70;4.85;;;;;;;9.77;62.89;101988.28;10241154;28;20059;-51
2023/02/04 09:11:26;;;;;;;14.40;4.78;;;;;;;10.04;62.07;101995.84;10236467;28;20051;-53
2023/02/04 09:16:28;;;;;;;12.13;3.47;;;;;;;10.12;60.97;102004.31;10241909;28;20055;-48
2023/02/04 09:21:30;;;;;;;13.52;3.75;;;;;;;10.38;59.90;102005.66;10240750;28;20054;-46
2023/02/04 09:26:32;;;;;;;10.20;3.35;;;;;;;10.31;58.89;102014.00;10234746;28;20986;-46
2023/02/04 09:31:33;;;;;;;14.23;4.25;;;;;;;10.56;58.70;102008.31;10238853;28;20058;-46
2023/02/04 09:36:37;;;;;;;10.93;3.45;;;;;;;11.25;59.75;102007.25;10241178;28;20054;-48
2023/02/04 09:41:39;;;;;;;11.07;3.28;;;;;;;10.64;57.46;102021.22;10240815;28;20050;-46
2023/02/04 09:46:48;;;;;;;12.88;3.88;;;;;;;10.51;58.17;102021.88;10240667;28;20055;-46
2023/02/04 09:51:50;;;;;;;13.15;3.72;;;;;;;11.10;56.84;102032.09;10235372;28;20058;-48
2023/02/04 09:56:52;;;;;;;9.43;3.00;;;;;;;11.19;55.87;102050.22;10239088;28;20058;-47
2023/02/04 10:02:00;;;;;;;14.52;3.65;;;;;;;10.87;57.89;102058.16;10235754;28;20138;-47
2023/02/04 10:07:02;;;;;;;11.45;3.47;;;;;;;10.36;59.58;102068.78;10230428;28;20121;-46
2023/02/04 10:12:05;;;;;;;13.40;4.05;;;;;;;10.20;60.44;102071.31;10225705;28;20050;-48
2023/02/04 10:17:08;;;;;;;12.55;3.17;;;;;;;10.22;60.27;102057.91;10235872;28;20054;-47
2023/02/04 10:22:20;;;;;;;11.48;3.90;;;;;;;10.86;58.24;102091.06;10233682;28;20055;-46
2023/02/04 10:27:22;;;;;;;9.40;3.10;;;;;;;11.99;54.80;102083.16;10234791;28;20061;-47
2023/02/04 10:32:32;;;;;;;7.00;2.22;;;;;;;12.79;52.04;102076.69;10237550;28;20112;-48
2023/02/04 10:37:34;;;;;;;8.10;2.92;;;;;;;13.34;49.31;102081.31;10233820;28;20054;-47
2023/02/04 10:42:35;;;;;;;5.97;2.13;;;;;;;13.62;48.37;102076.91;10233552;28;20133;-46
2023/02/04 10:47:37;;;;;;;6.35;1.90;;;;;;;14.57;43.99;102085.78;10232694;28;20054;-50
2023/02/04 10:52:40;;;;;;;7.43;2.30;;;;;;;13.90;45.31;102070.63;10234951;28;20062;-46
2023/02/04 10:57:43;;;;;;;10.80;3.10;;;;;;;13.73;46.70;102044.09;10230222;28;20716;-46
2023/02/04 11:02:55;;;;;;;9.00;2.37;;;;;;;13.00;48.27;102075.41;10231002;28;20054;-48
2023/02/04 11:07:57;;;;;;;7.45;2.72;;;;;;;13.12;48.13;102075.56;10235421;28;20093;-46
2023/02/04 11:13:00;;;;;;;9.15;2.03;;;;;;;13.47;46.38;102083.25;10221508;28;20256;-47
2023/02/04 11:18:04;;;;;;;6.63;2.53;;;;;;;16.46;41.69;102072.28;10228925;28;20050;-47
2023/02/04 11:23:25;;;;;;;9.75;2.97;;;;;;;18.13;37.13;102070.66;10232846;28;20055;-47
2023/02/04 11:28:26;;;;;;;6.45;1.95;;;;;;;18.76;35.71;102072.53;10231539;28;20058;-47
2023/02/04 11:33:40;;;;;;;5.75;1.85;;;;;;;23.96;27.58;102068.97;10234723;28;20058;-46
2023/02/04 11:38:47;;;;;;;7.50;2.03;;;;;;;25.43;25.25;102060.72;10235099;28;20047;-47
2023/02/04 11:43:52;;;;;;;8.95;2.60;;;;;;;21.41;30.25;102071.69;10232753;28;20161;-46
2023/02/04 11:48:55;;;;;;;6.35;2.20;;;;;;;17.94;35.58;102066.81;10230406;28;20062;-46
2023/02/04 11:53:56;;;;;;;6.38;2.20;;;;;;;18.89;34.14;102070.50;10233854;28;20639;-47
2023/02/04 11:58:58;;;;;;;6.60;2.38;;;;;;;15.89;38.96;102072.91;10230975;28;20058;-49
2023/02/04 12:04:01;;;;;;;5.03;1.70;;;;;;;14.30;41.61;102073.28;10229482;28;20054;-49
2023/02/04 12:09:21;;;;;;;6.00;2.00;;;;;;;13.34;45.24;102084.00;10229077;28;20151;-47
2023/02/04 12:14:35;;;;;;;9.52;2.67;;;;;;;13.16;45.20;102093.16;10227280;28;20042;-47
2023/02/04 12:19:37;;;;;;;9.80;2.55;;;;;;;13.72;44.33;102083.38;10228212;28;20471;-47
2023/02/04 12:24:38;;;;;;;7.95;2.38;;;;;;;14.64;42.38;102080.91;10227420;28;20140;-47
2023/02/04 12:29:40;;;;;;;7.55;2.25;;;;;;;17.10;38.37;102075.38;10223581;28;20050;-47
2023/02/04 12:34:41;;;;;;;8.85;2.22;;;;;;;22.04;30.43;102074.47;10225896;28;20056;-47
2023/02/04 12:39:43;;;;;;;5.22;2.03;;;;;;;25.50;24.62;102071.78;10229634;28;20621;-46
2023/02/04 12:44:44;;;;;;;7.40;2.10;;;;;;;21.79;28.52;102073.34;10233280;28;20519;-45
2023/02/04 12:49:46;;;;;;;6.85;2.00;;;;;;;18.97;32.69;102091.44;10236338;28;20090;-46
2023/02/04 12:54:47;;;;;;;5.57;2.45;;;;;;;17.17;35.33;102082.94;10232147;28;20046;-49
2023/02/04 12:59:48;;;;;;;7.45;2.10;;;;;;;15.73;37.96;102099.13;10228746;28;20074;-47
2023/02/04 13:04:51;;;;;;;6.80;2.35;;;;;;;14.83;40.04;102097.44;10222775;28;20150;-46
2023/02/04 13:09:52;;;;;;;8.65;2.60;;;;;;;14.57;40.72;102084.94;10218227;28;20050;-46
2023/02/04 13:14:53;;;;;;;9.52;3.05;;;;;;;14.35;41.84;102081.03;10224445;28;20090;-45
2023/02/04 13:19:55;;;;;;;9.80;2.78;;;;;;;21.89;30.45;102073.31;10223546;28;20065;-47
2023/02/04 13:24:56;;;;;;;6.68;2.22;;;;;;;24.02;24.99;102056.56;10229478;28;20496;-48
2023/02/04 13:29:58;;;;;;;7.15;2.00;;;;;;;21.69;28.46;102067.13;10228276;28;20062;-47
2023/02/04 13:34:59;;;;;;;8.10;2.25;;;;;;;23.19;25.81;102071.75;10228703;28;20058;-47
2023/02/04 13:40:01;;;;;;;6.07;1.98;;;;;;;26.51;22.21;102069.00;10233063;28;20047;-46
2023/02/04 13:45:04;;;;;;;7.73;2.57;;;;;;;25.63;22.35;102061.13;10231471;28;20062;-47
2023/02/04 13:50:06;;;;;;;7.57;2.13;;;;;;;27.42;20.39;102060.69;10233427;28;20119;-46
2023/02/04 13:55:07;;;;;;;7.90;2.20;;;;;;;26.34;21.41;102063.69;10234998;28;20525;-46
2023/02/04 14:00:09;;;;;;;6.85;3.17;;;;;;;27.28;20.59;102059.66;10231880;28;20520;-47
2023/02/04 14:05:11;;;;;;;5.15;2.40;;;;;;;27.54;19.95;102069.25;10232472;28;21002;-47
2023/02/04 14:10:12;;;;;;;5.07;1.98;;;;;;;25.86;21.01;102068.50;10225848;28;20726;-46
2023/02/04 14:15:14;;;;;;;6.68;2.17;;;;;;;20.47;28.34;102068.84;10224328;28;20923;-46
2023/02/04 14:20:16;;;;;;;7.40;3.37;;;;;;;18.51;30.33;102047.66;10241573;28;20105;-48
2023/02/04 14:25:17;;;;;;;6.75;2.10;;;;;;;17.72;31.86;102077.63;10227919;28;20062;-46
2023/02/04 14:30:24;;;;;;;8.07;2.75;;;;;;;17.11;32.53;102081.59;10231567;28;20055;-47
2023/02/04 14:35:26;;;;;;;8.43;2.33;;;;;;;16.01;34.92;102079.19;10228847;28;20043;-46
2023/02/04 14:40:27;;;;;;;9.02;2.08;;;;;;;15.40;35.78;102071.09;10225025;28;20121;-47
2023/02/04 14:45:28;;;;;;;6.85;2.30;;;;;;;17.02;33.61;102074.25;10228707;28;20054;-46
2023/02/04 14:50:30;;;;;;;5.40;1.80;;;;;;;17.13;32.95;102082.34;10229823;28;20488;-46
2023/02/04 14:55:32;;;;;;;5.93;1.92;;;;;;;15.37;35.82;102085.59;10229582;28;20070;-47
2023/02/04 15:00:33;;;;;;;5.55;2.00;;;;;;;13.29;39.68;102091.44;10231980;28;20062;-44
2023/02/04 15:05:35;;;;;;;6.60;2.35;;;;;;;12.86;41.00;102083.41;10230851;28;20053;-47
2023/02/04 15:10:37;;;;;;;7.82;2.60;;;;;;;12.53;41.84;102082.66;10231244;28;20055;-46
2023/02/04 15:15:39;;;;;;;4.85;1.98;;;;;;;12.34;42.52;102093.59;10228851;28;20499;-46
2023/02/04 15:20:40;;;;;;;5.82;2.05;;;;;;;11.91;42.09;102056.00;10230507;28;20069;-46
2023/02/04 15:25:41;;;;;;;10.63;2.38;;;;;;;11.95;42.56;102092.28;10232131;28;20059;-47
2023/02/04 15:30:43;;;;;;;7.82;2.10;;;;;;;11.72;43.21;102095.34;10225985;28;20066;-45
2023/02/04 15:35:44;;;;;;;8.70;2.55;;;;;;;11.58;43.44;102102.31;10228128;28;20116;-46
2023/02/04 15:40:46;;;;;;;5.22;2.53;;;;;;;11.58;43.72;102104.97;10230316;28;20065;-53
2023/02/04 15:45:47;;;;;;;6.32;1.90;;;;;;;11.35;44.89;102108.03;10227191;28;20058;-47
2023/02/04 15:50:50;;;;;;;6.38;2.45;;;;;;;11.03;46.14;102113.28;10228409;28;20051;-46
2023/02/04 15:55:51;;;;;;;10.35;2.75;;;;;;;10.65;47.47;102109.03;10244894;28;20058;-47
2023/02/04 16:00:52;;;;;;;7.30;2.42;;;;;;;10.49;48.13;102130.22;10231087;28;20062;-46
2023/02/04 16:05:54;;;;;;;7.72;2.25;;;;;;;10.24;49.02;102135.91;10233762;28;20114;-46
2023/02/04 16:10:55;;;;;;;6.68;2.35;;;;;;;10.11;49.80;102137.44;10235803;28;20058;-46
2023/02/04 16:15:57;;;;;;;7.55;2.53;;;;;;;10.04;50.29;102143.06;10223533;28;20525;-47
2023/02/04 16:20:58;;;;;;;7.32;2.63;;;;;;;9.82;50.03;102145.88;10223332;28;20065;-46
2023/02/04 16:26:00;;;;;;;5.03;2.22;;;;;;;9.74;50.61;102153.34;10227311;28;20055;-46
2023/02/04 16:31:01;;;;;;;6.90;2.42;;;;;;;9.74;51.31;102153.34;10226564;28;20054;-46
2023/02/04 16:36:06;;;;;;;12.85;8.10;;;;;;;9.55;51.02;102164.84;10217564;28;20831;-46
2023/02/04 16:41:09;;;;;;;8.07;2.30;;;;;;;9.36;51.63;102163.94;10223611;28;20206;-47
2023/02/04 16:46:11;;;;;;;5.45;2.28;;;;;;;9.38;51.57;102173.59;10224582;28;20055;-46
2023/02/04 16:51:12;;;;;;;20.25;12.68;;;;;;;9.45;52.04;102171.50;10226735;28;20249;-46
2023/02/04 16:56:14;;;;;;;10.05;3.83;;;;;;;9.41;51.72;102172.56;10231618;28;20051;-46
2023/02/04 17:01:18;;;;;;;8.32;3.00;;;;;;;9.26;52.44;102175.91;10224062;28;20058;-46
2023/02/04 17:06:19;;;;;;;6.40;2.58;;;;;;;9.16;52.64;102175.47;10224547;28;20059;-46
2023/02/04 17:11:28;;;;;;;10.23;3.85;;;;;;;9.09;52.81;102182.81;10226413;28;20905;-46
2023/02/04 17:16:30;;;;;;;8.23;3.28;;;;;;;8.99;53.16;102176.19;10232499;28;20789;-46
2023/02/04 17:21:32;;;;;;;8.38;3.50;;;;;;;9.00;52.94;102178.78;10227432;28;20109;-48
2023/02/04 17:26:38;;;;;;;7.68;3.88;;;;;;;8.85;52.49;102177.63;10227641;28;20061;-47
2023/02/04 17:31:42;;;;;;;6.95;3.50;;;;;;;8.78;52.51;102194.78;10230414;28;20062;-46
2023/02/04 17:36:43;;;;;;;7.40;2.92;;;;;;;8.74;52.85;102198.47;10232182;28;21074;-47
2023/02/04 17:41:44;;;;;;;7.22;3.45;;;;;;;8.75;53.01;102200.22;10227309;28;20054;-46
2023/02/04 17:46:46;;;;;;;5.45;3.55;;;;;;;8.76;52.80;102201.94;10256973;28;20169;-46
2023/02/04 17:51:48;;;;;;;8.10;5.45;;;;;;;8.38;53.01;102183.09;10234639;28;20085;-46
2023/02/04 17:56:50;;;;;;;4.93;3.33;;;;;;;8.47;53.42;102214.59;10242313;28;20627;-46
2023/02/04 18:01:52;;;;;;;7.55;4.03;;;;;;;8.42;53.20;102224.53;10236422;28;20432;-46
2023/02/04 18:06:53;;;;;;;5.63;2.97;;;;;;;8.43;53.43;102223.56;10235393;28;20086;-46
2023/02/04 18:11:55;;;;;;;6.93;3.60;;;;;;;8.30;52.38;102211.72;10236741;28;20108;-45
2023/02/04 18:16:58;;;;;;;7.97;3.58;;;;;;;8.29;53.03;102220.63;10236082;28;20068;-46
2023/02/04 18:21:59;;;;;;;6.95;4.00;;;;;;;8.19;53.02;102227.22;10235185;28;20051;-46
2023/02/04 18:27:13;;;;;;;5.55;3.40;;;;;;;8.18;53.35;102222.81;10234033;28;20059;-46
2023/02/04 18:32:39;;;;;;;5.40;2.92;;;;;;;8.11;52.76;102235.47;10238070;28;20061;-46
2023/02/04 18:37:45;;;;;;;5.43;2.90;;;;;;;8.03;52.62;102211.91;10246283;28;20061;-47
2023/02/04 18:42:47;;;;;;;6.75;4.32;;;;;;;8.10;52.30;102226.63;10229463;28;20053;-45
2023/02/04 18:47:49;;;;;;;6.95;3.72;;;;;;;8.05;52.40;102223.31;10231884;28;20111;-46
2023/02/04 18:52:51;;;;;;;5.70;3.13;;;;;;;7.91;52.50;102201.75;10233342;28;20598;-47
2023/02/04 18:57:52;;;;;;;7.93;4.03;;;;;;;8.08;52.14;102225.00;10234323;28;20148;-46
2023/02/04 19:02:57;;;;;;;5.15;3.65;;;;;;;8.04;52.11;102218.91;10236560;28;20407;-47
2023/02/04 19:08:05;;;;;;;7.68;4.15;;;;;;;7.97;52.74;102220.94;10249725;28;20058;-46
2023/02/04 19:13:40;;;;;;;7.90;4.50;;;;;;;7.94;53.03;102220.19;10236083;28;20053;-47
2023/02/04 19:18:42;;;;;;;7.13;4.07;;;;;;;7.90;53.78;102215.94;10229580;28;20059;-46
2023/02/04 19:23:44;;;;;;;9.77;4.80;;;;;;;7.84;53.82;102222.34;10231504;28;20566;-47
2023/02/04 19:28:48;;;;;;;8.98;6.00;;;;;;;7.84;54.09;102221.50;10234097;28;20054;-46
2023/02/04 19:33:50;;;;;;;7.22;4.32;;;;;;;7.79;54.42;102219.88;10238317;28;20050;-46
2023/02/04 19:38:57;;;;;;;4.57;3.85;;;;;;;7.79;55.01;102219.88;10235760;28;20082;-47
2023/02/04 19:44:11;;;;;;;5.97;4.03;;;;;;;7.70;54.92;102225.50;10231036;28;21187;-46
2023/02/04 19:49:23;;;;;;;6.57;3.90;;;;;;;7.68;55.18;102237.94;10226002;28;20138;-46
2023/02/04 19:54:36;;;;;;;4.82;3.85;;;;;;;7.63;55.24;102239.91;10233442;28;20073;-45
2023/02/04 19:59:37;;;;;;;6.75;4.53;;;;;;;7.57;55.30;102230.38;10233343;28;20047;-46
2023/02/04 20:04:43;;;;;;;7.95;5.43;;;;;;;7.43;55.95;102224.69;10232372;28;20050;-46
2023/02/04 20:09:45;;;;;;;7.60;5.10;;;;;;;7.49;55.91;102226.28;10233908;28;20116;-46
2023/02/04 20:14:48;;;;;;;7.47;4.50;;;;;;;7.58;56.29;102242.72;10236742;28;20447;-46
2023/02/04 20:19:50;;;;;;;10.55;5.03;;;;;;;7.55;56.67;102247.25;10231646;28;20070;-46
2023/02/04 20:24:57;;;;;;;6.97;4.63;;;;;;;7.52;56.91;102248.25;10243267;28;20783;-46
2023/02/04 20:30:08;;;;;;;8.18;5.63;;;;;;;7.52;57.17;102258.84;10232164;28;20050;-46
2023/02/04 20:35:12;;;;;;;8.20;5.10;;;;;;;7.48;57.96;102261.66;10232017;28;20055;-45
2023/02/04 20:40:25;;;;;;;7.10;5.43;;;;;;;7.48;58.27;102266.97;10233532;28;20101;-51
2023/02/04 20:45:46;;;;;;;8.75;5.60;;;;;;;7.43;58.55;102264.44;10247319;28;20053;-47
2023/02/04 20:50:52;;;;;;;9.68;5.75;;;;;;;7.43;58.93;102262.69;10231267;28;20086;-46
2023/02/04 20:56:02;;;;;;;7.00;5.13;;;;;;;7.37;59.75;102265.56;10226480;28;20780;-47
2023/02/04 21:01:33;;;;;;;7.18;4.68;;;;;;;7.32;59.89;102272.78;10230253;28;20059;-51
2023/02/04 21:06:35;;;;;;;6.43;4.53;;;;;;;7.25;60.33;102271.25;10243187;28;21392;-46
2023/02/04 21:11:36;;;;;;;7.18;4.63;;;;;;;7.21;60.59;102262.56;10229841;28;20848;-47
2023/02/04 21:16:37;;;;;;;7.47;4.55;;;;;;;7.18;60.71;102264.47;10227476;28;20905;-46
2023/02/04 21:21:39;;;;;;;10.02;5.22;;;;;;;7.15;61.22;102269.88;10227116;28;20054;-46
2023/02/04 21:26:41;;;;;;;8.40;5.60;;;;;;;7.11;60.38;102274.38;10228234;28;20059;-51
2023/02/04 21:31:43;;;;;;;8.05;5.97;;;;;;;6.99;60.38;102261.56;10223434;28;20050;-48
2023/02/04 21:36:45;;;;;;;8.82;6.18;;;;;;;7.05;60.11;102278.09;10231544;28;20061;-46
2023/02/04 21:42:08;;;;;;;8.82;6.55;;;;;;;7.06;59.74;102274.53;10230543;28;20371;-48
2023/02/04 21:47:08;;;;;;;8.35;5.72;;;;;;;7.06;59.71;102284.28;10227859;28;20056;-47
2023/02/04 21:52:09;;;;;;;8.63;6.38;;;;;;;7.01;59.22;102272.94;10230372;28;20090;-47
2023/02/04 21:57:11;;;;;;;10.95;7.95;;;;;;;6.99;59.17;102270.34;10232636;28;20051;-46
2023/02/04 22:02:12;;;;;;;7.32;6.45;;;;;;;6.96;59.14;102275.75;10232743;28;20149;-46
2023/02/04 22:07:14;;;;;;;12.50;7.15;;;;;;;6.82;59.41;102262.13;10242769;28;20593;-46
2023/02/04 22:12:16;;;;;;;11.45;7.72;;;;;;;6.83;58.96;102266.47;10229790;28;20070;-48
2023/02/04 22:17:17;;;;;;;8.65;6.00;;;;;;;6.82;59.05;102273.56;10232538;28;20728;-47
2023/02/04 22:22:20;;;;;;;9.13;6.05;;;;;;;6.88;59.68;102283.09;10230680;28;20046;-47
2023/02/04 22:27:22;;;;;;;11.57;7.13;;;;;;;6.64;59.55;102232.69;10246770;28;20743;-45
2023/02/04 22:32:23;;;;;;;9.73;6.35;;;;;;;6.83;59.77;102269.13;10251951;28;20047;-53
2023/02/04 22:37:25;;;;;;;9.15;7.05;;;;;;;6.77;60.17;102264.03;10256302;28;20050;-47
2023/02/04 22:42:26;;;;;;;8.23;6.15;;;;;;;6.75;60.51;102261.44;10250317;28;20061;-47
2023/02/04 22:47:28;;;;;;;7.65;6.88;;;;;;;6.63;60.62;102262.69;10249497;28;20050;-47
2023/02/04 22:52:29;;;;;;;8.25;6.05;;;;;;;6.56;61.35;102266.47;10249323;28;20500;-45
2023/02/04 22:57:30;;;;;;;10.82;6.07;;;;;;;6.53;61.46;102269.19;10246623;28;20061;-46
2023/02/04 23:02:32;;;;;;;6.63;5.80;;;;;;;6.51;61.36;102269.25;10255983;28;20065;-46
2023/02/04 23:07:33;;;;;;;6.07;5.40;;;;;;;6.36;62.16;102272.38;10250967;28;20527;-47
2023/02/04 23:12:35;;;;;;;9.30;6.13;;;;;;;6.30;62.54;102265.47;10248097;28;20054;-47
2023/02/04 23:17:36;;;;;;;8.07;6.03;;;;;;;6.17;62.84;102264.13;10250701;28;20169;-47